sensor_id;sensor_type;location;lat;lon;timestamp;pressure;altitude;pressure_sealevel;temperature;humidity
2188;BME280;1100;52.014;8.540;2023-02-28T00:00:30;101614.16;;;-3.04;82.96
2188;BME280;1100;52.014;8.540;2023-02-28T00:02:55;101619.91;;;-3.05;82.94
2188;BME280;1100;52.014;8.540;2023-02-28T00:05:23;101618.31;;;-3.06;83.07
2188;BME280;1100;52.014;8.540;2023-02-28T00:07:49;101617.19;;;-3.05;82.92
2188;BME280;1100;52.014;8.540;2023-02-28T00:10:20;101614.16;;;-3.04;82.90
2188;BME280;1100;52.014;8.540;2023-02-28T00:12:53;101610.53;;;-2.99;83.25
2188;BME280;1100;52.014;8.540;2023-02-28T00:15:19;101608.78;;;-2.95;83.09
2188;BME280;1100;52.014;8.540;2023-02-28T00:17:45;101606.88;;;-2.94;83.09
2188;BME280;1100;52.014;8.540;2023-02-28T00:20:12;101610.41;;;-2.94;83.13
2188;BME280;1100;52.014;8.540;2023-02-28T00:22:40;101600.81;;;-2.91;83.31
2188;BME280;1100;52.014;8.540;2023-02-28T00:25:07;101601.50;;;-2.85;83.49
2188;BME280;1100;52.014;8.540;2023-02-28T00:27:33;101604.09;;;-2.80;83.34
2188;BME280;1100;52.014;8.540;2023-02-28T00:29:59;101608.72;;;-2.81;83.25
2188;BME280;1100;52.014;8.540;2023-02-28T00:32:24;101610.16;;;-2.83;83.30
2188;BME280;1100;52.014;8.540;2023-02-28T00:34:50;101608.88;;;-2.86;82.99
2188;BME280;1100;52.014;8.540;2023-02-28T00:37:15;101614.00;;;-2.84;83.38
2188;BME280;1100;52.014;8.540;2023-02-28T00:39:41;101618.63;;;-2.85;83.26
2188;BME280;1100;52.014;8.540;2023-02-28T00:42:07;101610.97;;;-2.83;83.59
2188;BME280;1100;52.014;8.540;2023-02-28T00:44:33;101619.91;;;-2.82;83.55
2188;BME280;1100;52.014;8.540;2023-02-28T00:46:58;101615.28;;;-2.82;83.47
2188;BME280;1100;52.014;8.540;2023-02-28T00:49:25;101613.84;;;-2.79;83.28
2188;BME280;1100;52.014;8.540;2023-02-28T00:51:51;101614.31;;;-2.86;83.36
2188;BME280;1100;52.014;8.540;2023-02-28T00:54:17;101621.97;;;-2.88;83.30
2188;BME280;1100;52.014;8.540;2023-02-28T00:56:42;101618.06;;;-2.96;83.06
2188;BME280;1100;52.014;8.540;2023-02-28T00:59:07;101619.19;;;-2.97;83.53
2188;BME280;1100;52.014;8.540;2023-02-28T01:01:33;101628.44;;;-2.98;83.54
2188;BME280;1100;52.014;8.540;2023-02-28T01:03:58;101621.72;;;-3.01;83.40
2188;BME280;1100;52.014;8.540;2023-02-28T01:06:24;101618.50;;;-3.03;83.41
2188;BME280;1100;52.014;8.540;2023-02-28T01:08:50;101624.69;;;-3.11;83.32
2188;BME280;1100;52.014;8.540;2023-02-28T01:11:16;101623.66;;;-3.15;83.51
2188;BME280;1100;52.014;8.540;2023-02-28T01:13:43;101623.38;;;-3.14;83.54
2188;BME280;1100;52.014;8.540;2023-02-28T01:16:09;101621.75;;;-3.15;83.22
2188;BME280;1100;52.014;8.540;2023-02-28T01:18:34;101623.00;;;-3.21;83.25
2188;BME280;1100;52.014;8.540;2023-02-28T01:21:11;101620.88;;;-3.24;83.33
2188;BME280;1100;52.014;8.540;2023-02-28T01:23:38;101620.38;;;-3.26;83.41
2188;BME280;1100;52.014;8.540;2023-02-28T01:26:08;101628.66;;;-3.31;83.33
2188;BME280;1100;52.014;8.540;2023-02-28T01:28:34;101622.53;;;-3.37;83.45
2188;BME280;1100;52.014;8.540;2023-02-28T01:31:00;101620.72;;;-3.42;83.44
2188;BME280;1100;52.014;8.540;2023-02-28T01:33:25;101610.44;;;-3.45;83.44
2188;BME280;1100;52.014;8.540;2023-02-28T01:36:04;101618.75;;;-3.50;83.39
2188;BME280;1100;52.014;8.540;2023-02-28T01:38:29;101619.34;;;-3.53;83.33
2188;BME280;1100;52.014;8.540;2023-02-28T01:40:55;101611.28;;;-3.58;83.35
2188;BME280;1100;52.014;8.540;2023-02-28T01:45:49;101608.06;;;-3.60;83.35
2188;BME280;1100;52.014;8.540;2023-02-28T01:48:15;101610.78;;;-3.60;83.48
2188;BME280;1100;52.014;8.540;2023-02-28T01:50:43;101607.06;;;-3.65;83.53
2188;BME280;1100;52.014;8.540;2023-02-28T01:53:16;101601.31;;;-3.63;83.83
2188;BME280;1100;52.014;8.540;2023-02-28T01:55:47;101608.50;;;-3.67;83.66
2188;BME280;1100;52.014;8.540;2023-02-28T01:58:13;101611.31;;;-3.72;83.28
2188;BME280;1100;52.014;8.540;2023-02-28T02:00:39;101605.97;;;-3.78;83.38
2188;BME280;1100;52.014;8.540;2023-02-28T02:03:09;101611.22;;;-3.81;83.81
2188;BME280;1100;52.014;8.540;2023-02-28T02:05:37;101616.66;;;-3.81;83.55
2188;BME280;1100;52.014;8.540;2023-02-28T02:08:05;101616.97;;;-3.83;83.88
2188;BME280;1100;52.014;8.540;2023-02-28T02:10:35;101617.75;;;-3.82;83.84
2188;BME280;1100;52.014;8.540;2023-02-28T02:16:33;101611.31;;;-3.86;83.98
2188;BME280;1100;52.014;8.540;2023-02-28T02:19:54;101622.69;;;-3.84;83.81
2188;BME280;1100;52.014;8.540;2023-02-28T02:25:15;101613.72;;;-3.85;83.76
2188;BME280;1100;52.014;8.540;2023-02-28T02:31:03;101607.91;;;-3.78;83.88
2188;BME280;1100;52.014;8.540;2023-02-28T02:33:43;101611.69;;;-3.79;83.93
2188;BME280;1100;52.014;8.540;2023-02-28T02:36:23;101610.09;;;-3.80;83.76
2188;BME280;1100;52.014;8.540;2023-02-28T02:39:05;101608.97;;;-3.79;83.85
2188;BME280;1100;52.014;8.540;2023-02-28T02:41:47;101601.94;;;-3.80;83.88
2188;BME280;1100;52.014;8.540;2023-02-28T02:46:51;101601.84;;;-3.75;84.31
2188;BME280;1100;52.014;8.540;2023-02-28T02:49:25;101605.34;;;-3.75;84.05
2188;BME280;1100;52.014;8.540;2023-02-28T02:51:53;101599.75;;;-3.78;83.81
2188;BME280;1100;52.014;8.540;2023-02-28T02:54:23;101605.28;;;-3.83;83.87
2188;BME280;1100;52.014;8.540;2023-02-28T02:56:54;101610.81;;;-3.89;84.02
2188;BME280;1100;52.014;8.540;2023-02-28T02:59:21;101610.63;;;-3.92;83.92
2188;BME280;1100;52.014;8.540;2023-02-28T03:01:51;101615.31;;;-3.98;83.67
2188;BME280;1100;52.014;8.540;2023-02-28T03:04:19;101611.91;;;-4.04;83.67
2188;BME280;1100;52.014;8.540;2023-02-28T03:06:45;101614.41;;;-4.07;84.00
2188;BME280;1100;52.014;8.540;2023-02-28T03:09:10;101611.69;;;-4.07;83.94
2188;BME280;1100;52.014;8.540;2023-02-28T03:11:37;101615.53;;;-4.08;84.10
2188;BME280;1100;52.014;8.540;2023-02-28T03:19:47;101610.28;;;-4.19;83.94
2188;BME280;1100;52.014;8.540;2023-02-28T03:24:49;101613.09;;;-4.24;84.15
2188;BME280;1100;52.014;8.540;2023-02-28T03:27:29;101607.75;;;-4.29;83.90
2188;BME280;1100;52.014;8.540;2023-02-28T03:30:02;101611.88;;;-4.32;83.78
2188;BME280;1100;52.014;8.540;2023-02-28T03:32:33;101609.19;;;-4.32;83.99
2188;BME280;1100;52.014;8.540;2023-02-28T03:35:14;101605.13;;;-4.34;84.23
2188;BME280;1100;52.014;8.540;2023-02-28T03:38:00;101605.66;;;-4.32;84.14
2188;BME280;1100;52.014;8.540;2023-02-28T03:40:31;101603.44;;;-4.30;84.37
2188;BME280;1100;52.014;8.540;2023-02-28T03:43:04;101600.22;;;-4.32;84.15
2188;BME280;1100;52.014;8.540;2023-02-28T03:45:36;101600.22;;;-4.32;84.21
2188;BME280;1100;52.014;8.540;2023-02-28T03:53:14;101599.81;;;-4.40;84.34
2188;BME280;1100;52.014;8.540;2023-02-28T03:56:06;101598.78;;;-4.44;83.87
2188;BME280;1100;52.014;8.540;2023-02-28T04:01:09;101611.44;;;-4.53;83.95
2188;BME280;1100;52.014;8.540;2023-02-28T04:03:37;101609.00;;;-4.55;84.17
2188;BME280;1100;52.014;8.540;2023-02-28T04:06:04;101609.59;;;-4.58;84.12
2188;BME280;1100;52.014;8.540;2023-02-28T04:08:31;101604.00;;;-4.61;83.99
2188;BME280;1100;52.014;8.540;2023-02-28T04:11:04;101600.97;;;-4.60;84.49
2188;BME280;1100;52.014;8.540;2023-02-28T04:13:31;101605.22;;;-4.54;84.23
2188;BME280;1100;52.014;8.540;2023-02-28T04:15:57;101609.31;;;-4.56;84.15
2188;BME280;1100;52.014;8.540;2023-02-28T04:18:22;101608.22;;;-4.55;84.06
2188;BME280;1100;52.014;8.540;2023-02-28T04:20:48;101609.81;;;-4.54;84.57
2188;BME280;1100;52.014;8.540;2023-02-28T04:23:13;101609.59;;;-4.58;84.32
2188;BME280;1100;52.014;8.540;2023-02-28T04:25:38;101604.00;;;-4.61;84.26
2188;BME280;1100;52.014;8.540;2023-02-28T04:28:05;101600.75;;;-4.64;84.36
2188;BME280;1100;52.014;8.540;2023-02-28T04:30:30;101600.03;;;-4.69;83.99
2188;BME280;1100;52.014;8.540;2023-02-28T04:32:57;101604.13;;;-4.72;84.42
2188;BME280;1100;52.014;8.540;2023-02-28T04:35:23;101604.13;;;-4.72;84.23
2188;BME280;1100;52.014;8.540;2023-02-28T04:37:48;101607.16;;;-4.73;84.24
2188;BME280;1100;52.014;8.540;2023-02-28T04:40:14;101601.94;;;-4.70;84.71
2188;BME280;1100;52.014;8.540;2023-02-28T04:42:39;101604.66;;;-4.70;84.21
2188;BME280;1100;52.014;8.540;2023-02-28T04:45:05;101600.63;;;-4.72;84.54
2188;BME280;1100;52.014;8.540;2023-02-28T04:47:30;101608.56;;;-4.76;84.49
2188;BME280;1100;52.014;8.540;2023-02-28T04:49:56;101606.66;;;-4.76;84.49
2188;BME280;1100;52.014;8.540;2023-02-28T04:52:21;101614.88;;;-4.81;84.51
2188;BME280;1100;52.014;8.540;2023-02-28T04:54:47;101598.88;;;-4.82;84.45
2188;BME280;1100;52.014;8.540;2023-02-28T04:57:12;101607.03;;;-4.82;84.28
2188;BME280;1100;52.014;8.540;2023-02-28T04:59:38;101609.53;;;-4.86;84.23
2188;BME280;1100;52.014;8.540;2023-02-28T05:02:03;101602.78;;;-4.89;84.44
2188;BME280;1100;52.014;8.540;2023-02-28T05:04:33;101601.19;;;-4.90;84.67
2188;BME280;1100;52.014;8.540;2023-02-28T05:06:59;101601.47;;;-4.91;84.38
2188;BME280;1100;52.014;8.540;2023-02-28T05:09:25;101605.56;;;-4.94;84.52
2188;BME280;1100;52.014;8.540;2023-02-28T05:11:50;101610.22;;;-4.94;84.53
2188;BME280;1100;52.014;8.540;2023-02-28T05:14:15;101613.22;;;-4.96;84.26
2188;BME280;1100;52.014;8.540;2023-02-28T05:16:41;101613.50;;;-4.97;84.45
2188;BME280;1100;52.014;8.540;2023-02-28T05:19:06;101613.50;;;-4.97;84.37
2188;BME280;1100;52.014;8.540;2023-02-28T05:21:34;101614.09;;;-5.01;84.59
2188;BME280;1100;52.014;8.540;2023-02-28T05:24:04;101614.88;;;-5.00;84.50
2188;BME280;1100;52.014;8.540;2023-02-28T05:26:31;101617.09;;;-5.02;84.55
2188;BME280;1100;52.014;8.540;2023-02-28T05:28:58;101619.59;;;-5.06;84.59
2188;BME280;1100;52.014;8.540;2023-02-28T05:31:24;101629.13;;;-5.08;84.62
2188;BME280;1100;52.014;8.540;2023-02-28T05:33:49;101619.66;;;-5.11;84.40
2188;BME280;1100;52.014;8.540;2023-02-28T05:36:15;101628.31;;;-5.09;84.55
2188;BME280;1100;52.014;8.540;2023-02-28T05:38:40;101621.28;;;-5.10;84.84
2188;BME280;1100;52.014;8.540;2023-02-28T05:41:10;101622.59;;;-5.07;84.74
2188;BME280;1100;52.014;8.540;2023-02-28T05:43:36;101637.75;;;-5.06;84.50
2188;BME280;1100;52.014;8.540;2023-02-28T05:46:03;101626.13;;;-5.07;84.53
2188;BME280;1100;52.014;8.540;2023-02-28T05:48:33;101635.34;;;-5.08;84.63
2188;BME280;1100;52.014;8.540;2023-02-28T05:50:58;101626.41;;;-5.08;84.35
2188;BME280;1100;52.014;8.540;2023-02-28T05:53:24;101624.19;;;-5.06;84.44
2188;BME280;1100;52.014;8.540;2023-02-28T05:55:49;101625.03;;;-5.06;84.80
2188;BME280;1100;52.014;8.540;2023-02-28T05:58:14;101623.72;;;-5.08;84.79
2188;BME280;1100;52.014;8.540;2023-02-28T06:00:40;101622.06;;;-5.09;84.54
2188;BME280;1100;52.014;8.540;2023-02-28T06:03:05;101618.06;;;-5.12;84.83
2188;BME280;1100;52.014;8.540;2023-02-28T06:05:30;101628.91;;;-5.12;84.92
2188;BME280;1100;52.014;8.540;2023-02-28T06:07:56;101635.44;;;-5.13;84.81
2188;BME280;1100;52.014;8.540;2023-02-28T06:10:21;101627.59;;;-5.15;84.66
2188;BME280;1100;52.014;8.540;2023-02-28T06:12:46;101628.38;;;-5.14;84.58
2188;BME280;1100;52.014;8.540;2023-02-28T06:15:13;101636.50;;;-5.14;84.97
2188;BME280;1100;52.014;8.540;2023-02-28T06:17:40;101634.63;;;-5.14;84.58
2188;BME280;1100;52.014;8.540;2023-02-28T06:20:10;101628.69;;;-5.16;84.66
2188;BME280;1100;52.014;8.540;2023-02-28T06:22:38;101624.88;;;-5.15;84.79
2188;BME280;1100;52.014;8.540;2023-02-28T06:25:04;101635.16;;;-5.11;84.92
2188;BME280;1100;52.014;8.540;2023-02-28T06:27:31;101631.31;;;-5.10;84.72
2188;BME280;1100;52.014;8.540;2023-02-28T06:29:56;101629.72;;;-5.11;84.52
2188;BME280;1100;52.014;8.540;2023-02-28T06:32:22;101631.31;;;-5.10;84.55
2188;BME280;1100;52.014;8.540;2023-02-28T06:34:47;101631.31;;;-5.10;85.06
2188;BME280;1100;52.014;8.540;2023-02-28T06:37:13;101630.72;;;-5.07;85.25
2188;BME280;1100;52.014;8.540;2023-02-28T06:39:38;101636.38;;;-5.04;85.10
2188;BME280;1100;52.014;8.540;2023-02-28T06:42:04;101633.38;;;-5.02;84.91
2188;BME280;1100;52.014;8.540;2023-02-28T06:44:29;101642.25;;;-4.96;84.99
2188;BME280;1100;52.014;8.540;2023-02-28T06:47:01;101644.06;;;-4.92;84.81
2188;BME280;1100;52.014;8.540;2023-02-28T06:49:29;101654.84;;;-4.86;85.14
2188;BME280;1100;52.014;8.540;2023-02-28T06:51:54;101658.56;;;-4.82;85.11
2188;BME280;1100;52.014;8.540;2023-02-28T06:54:20;101658.22;;;-4.76;85.02
2188;BME280;1100;52.014;8.540;2023-02-28T06:56:45;101660.75;;;-4.65;84.89
2188;BME280;1100;52.014;8.540;2023-02-28T06:59:12;101655.44;;;-4.56;85.26
2188;BME280;1100;52.014;8.540;2023-02-28T07:01:37;101660.97;;;-4.28;84.59
2188;BME280;1100;52.014;8.540;2023-02-28T07:04:05;101662.72;;;-3.76;84.44
2188;BME280;1100;52.014;8.540;2023-02-28T07:06:31;101664.72;;;-3.26;84.39
2188;BME280;1100;52.014;8.540;2023-02-28T07:08:56;101669.78;;;-2.73;84.19
2188;BME280;1100;52.014;8.540;2023-02-28T07:11:23;101671.88;;;-2.24;83.84
2188;BME280;1100;52.014;8.540;2023-02-28T07:13:51;101681.56;;;-1.77;83.68
2188;BME280;1100;52.014;8.540;2023-02-28T07:16:16;101685.88;;;-1.35;83.08
2188;BME280;1100;52.014;8.540;2023-02-28T07:18:41;101679.63;;;-1.27;83.04
2188;BME280;1100;52.014;8.540;2023-02-28T07:21:09;101680.56;;;-1.41;83.23
2188;BME280;1100;52.014;8.540;2023-02-28T07:23:35;101680.34;;;-1.62;83.20
2188;BME280;1100;52.014;8.540;2023-02-28T07:26:00;101689.41;;;-1.84;83.07
2188;BME280;1100;52.014;8.540;2023-02-28T07:28:26;101689.47;;;-2.07;83.38
2188;BME280;1100;52.014;8.540;2023-02-28T07:30:51;101693.88;;;-2.20;83.59
2188;BME280;1100;52.014;8.540;2023-02-28T07:33:17;101694.13;;;-2.31;84.08
2188;BME280;1100;52.014;8.540;2023-02-28T07:35:42;101695.38;;;-2.37;84.37
2188;BME280;1100;52.014;8.540;2023-02-28T07:38:08;101689.75;;;-2.41;84.49
2188;BME280;1100;52.014;8.540;2023-02-28T07:40:34;101706.09;;;-2.41;84.58
2188;BME280;1100;52.014;8.540;2023-02-28T07:43:01;101700.81;;;-2.37;84.81
2188;BME280;1100;52.014;8.540;2023-02-28T07:45:27;101697.97;;;-2.32;84.84
2188;BME280;1100;52.014;8.540;2023-02-28T07:47:54;101702.97;;;-2.25;85.00
2188;BME280;1100;52.014;8.540;2023-02-28T07:50:19;101704.16;;;-2.17;84.94
2188;BME280;1100;52.014;8.540;2023-02-28T07:52:45;101699.84;;;-2.09;84.99
2188;BME280;1100;52.014;8.540;2023-02-28T07:55:10;101707.75;;;-1.99;85.12
2188;BME280;1100;52.014;8.540;2023-02-28T07:57:36;101705.41;;;-1.92;85.06
2188;BME280;1100;52.014;8.540;2023-02-28T08:00:06;101701.25;;;-1.89;84.89
2188;BME280;1100;52.014;8.540;2023-02-28T08:02:32;101696.28;;;-1.87;84.83
2188;BME280;1100;52.014;8.540;2023-02-28T08:04:58;101690.53;;;-1.85;84.97
2188;BME280;1100;52.014;8.540;2023-02-28T08:07:24;101697.59;;;-1.76;85.18
2188;BME280;1100;52.014;8.540;2023-02-28T08:09:51;101694.78;;;-1.61;85.33
2188;BME280;1100;52.014;8.540;2023-02-28T08:12:16;101689.03;;;-1.51;85.38
2188;BME280;1100;52.014;8.540;2023-02-28T08:14:41;101696.78;;;-1.35;85.26
2188;BME280;1100;52.014;8.540;2023-02-28T08:17:07;101697.00;;;-1.05;84.68
2188;BME280;1100;52.014;8.540;2023-02-28T08:19:32;101689.63;;;-0.69;84.59
2188;BME280;1100;52.014;8.540;2023-02-28T08:21:58;101692.34;;;-0.52;84.68
2188;BME280;1100;52.014;8.540;2023-02-28T08:24:23;101702.13;;;-0.24;84.80
2188;BME280;1100;52.014;8.540;2023-02-28T08:26:49;101695.00;;;-0.07;84.56
2188;BME280;1100;52.014;8.540;2023-02-28T08:29:14;101695.09;;;0.05;84.51
2188;BME280;1100;52.014;8.540;2023-02-28T08:31:40;101692.69;;;0.13;84.51
2188;BME280;1100;52.014;8.540;2023-02-28T08:34:10;101690.34;;;0.32;83.97
2188;BME280;1100;52.014;8.540;2023-02-28T08:36:36;101693.22;;;0.66;84.32
2188;BME280;1100;52.014;8.540;2023-02-28T08:39:02;101700.22;;;1.06;84.06
2188;BME280;1100;52.014;8.540;2023-02-28T08:41:28;101691.50;;;1.47;83.62
2188;BME280;1100;52.014;8.540;2023-02-28T08:43:53;101693.19;;;1.73;83.20
2188;BME280;1100;52.014;8.540;2023-02-28T08:46:19;101698.34;;;1.87;83.61
2188;BME280;1100;52.014;8.540;2023-02-28T08:48:44;101700.94;;;2.17;83.47
2188;BME280;1100;52.014;8.540;2023-02-28T08:51:12;101700.47;;;2.53;83.34
2188;BME280;1100;52.014;8.540;2023-02-28T08:53:39;101704.28;;;2.73;82.72
2188;BME280;1100;52.014;8.540;2023-02-28T08:56:07;101696.41;;;3.00;82.08
2188;BME280;1100;52.014;8.540;2023-02-28T08:58:34;101705.28;;;3.22;82.44
2188;BME280;1100;52.014;8.540;2023-02-28T09:00:59;101710.91;;;3.26;82.20
2188;BME280;1100;52.014;8.540;2023-02-28T09:03:24;101709.53;;;3.19;82.62
2188;BME280;1100;52.014;8.540;2023-02-28T09:05:58;101714.88;;;2.99;83.22
2188;BME280;1100;52.014;8.540;2023-02-28T09:08:25;101714.91;;;2.87;83.15
2188;BME280;1100;52.014;8.540;2023-02-28T09:10:51;101713.06;;;2.79;83.17
2188;BME280;1100;52.014;8.540;2023-02-28T09:13:17;101707.09;;;2.77;83.19
2188;BME280;1100;52.014;8.540;2023-02-28T09:15:43;101702.53;;;2.81;82.90
2188;BME280;1100;52.014;8.540;2023-02-28T09:18:08;101704.66;;;3.00;83.26
2188;BME280;1100;52.014;8.540;2023-02-28T09:20:34;101702.47;;;3.18;83.21
2188;BME280;1100;52.014;8.540;2023-02-28T09:22:59;101694.44;;;3.13;82.66
2188;BME280;1100;52.014;8.540;2023-02-28T09:25:24;101694.06;;;3.27;82.85
2188;BME280;1100;52.014;8.540;2023-02-28T09:27:50;101698.28;;;3.37;82.72
2188;BME280;1100;52.014;8.540;2023-02-28T09:30:15;101697.31;;;3.45;82.21
2188;BME280;1100;52.014;8.540;2023-02-28T09:32:41;101684.47;;;3.49;82.17
2188;BME280;1100;52.014;8.540;2023-02-28T09:35:07;101700.03;;;3.74;82.65
2188;BME280;1100;52.014;8.540;2023-02-28T09:37:38;101700.31;;;3.85;82.71
2188;BME280;1100;52.014;8.540;2023-02-28T09:40:04;101696.13;;;3.75;82.83
2188;BME280;1100;52.014;8.540;2023-02-28T09:42:33;101695.06;;;3.35;82.04
2188;BME280;1100;52.014;8.540;2023-02-28T09:45:02;101706.16;;;2.97;82.42
2188;BME280;1100;52.014;8.540;2023-02-28T09:47:38;101707.91;;;2.77;82.51
2188;BME280;1100;52.014;8.540;2023-02-28T09:50:30;101709.88;;;2.52;83.29
2188;BME280;1100;52.014;8.540;2023-02-28T09:52:58;101712.47;;;2.98;83.53
2188;BME280;1100;52.014;8.540;2023-02-28T09:55:31;101706.66;;;3.57;82.51
2188;BME280;1100;52.014;8.540;2023-02-28T09:58:00;101700.88;;;4.07;82.18
2188;BME280;1100;52.014;8.540;2023-02-28T10:00:33;101697.94;;;4.48;81.98
2188;BME280;1100;52.014;8.540;2023-02-28T10:05:52;101707.13;;;5.28;81.59
2188;BME280;1100;52.014;8.540;2023-02-28T10:08:24;101700.91;;;5.51;81.44
2188;BME280;1100;52.014;8.540;2023-02-28T10:10:57;101701.22;;;5.69;80.38
2188;BME280;1100;52.014;8.540;2023-02-28T10:16:21;101706.47;;;5.74;80.60
2188;BME280;1100;52.014;8.540;2023-02-28T10:18:52;101698.94;;;5.31;80.11
2188;BME280;1100;52.014;8.540;2023-02-28T10:21:28;101702.25;;;5.01;79.68
2188;BME280;1100;52.014;8.540;2023-02-28T10:24:16;101701.53;;;5.04;80.84
2188;BME280;1100;52.014;8.540;2023-02-28T10:26:45;101703.56;;;5.27;80.20
2188;BME280;1100;52.014;8.540;2023-02-28T10:29:12;101690.59;;;5.47;80.19
2188;BME280;1100;52.014;8.540;2023-02-28T10:31:38;101699.94;;;5.63;78.69
2188;BME280;1100;52.014;8.540;2023-02-28T10:34:04;101685.94;;;5.52;78.33
2188;BME280;1100;52.014;8.540;2023-02-28T10:36:32;101693.94;;;5.57;79.07
2188;BME280;1100;52.014;8.540;2023-02-28T10:38:57;101690.13;;;5.65;77.74
2188;BME280;1100;52.014;8.540;2023-02-28T10:41:32;101692.38;;;5.59;77.82
2188;BME280;1100;52.014;8.540;2023-02-28T10:44:21;101686.94;;;5.63;76.75
2188;BME280;1100;52.014;8.540;2023-02-28T10:46:48;101693.44;;;5.74;78.23
2188;BME280;1100;52.014;8.540;2023-02-28T10:49:21;101692.88;;;5.85;76.61
2188;BME280;1100;52.014;8.540;2023-02-28T10:51:52;101690.88;;;6.05;77.54
2188;BME280;1100;52.014;8.540;2023-02-28T10:54:22;101687.94;;;6.45;77.84
2188;BME280;1100;52.014;8.540;2023-02-28T10:59:32;101692.41;;;6.53;76.97
2188;BME280;1100;52.014;8.540;2023-02-28T11:01:57;101683.03;;;6.34;77.40
2188;BME280;1100;52.014;8.540;2023-02-28T11:06:57;101682.38;;;5.11;77.25
2188;BME280;1100;52.014;8.540;2023-02-28T11:09:28;101676.78;;;4.52;77.08
2188;BME280;1100;52.014;8.540;2023-02-28T11:11:55;101680.19;;;4.13;77.17
2188;BME280;1100;52.014;8.540;2023-02-28T11:14:32;101670.41;;;3.83;77.38
2188;BME280;1100;52.014;8.540;2023-02-28T11:17:11;101674.66;;;3.65;78.12
2188;BME280;1100;52.014;8.540;2023-02-28T11:19:40;101663.81;;;3.56;78.29
2188;BME280;1100;52.014;8.540;2023-02-28T11:22:09;101669.22;;;3.52;77.75
2188;BME280;1100;52.014;8.540;2023-02-28T11:24:48;101665.66;;;3.52;77.43
2188;BME280;1100;52.014;8.540;2023-02-28T11:29:57;101675.25;;;3.58;77.09
2188;BME280;1100;52.014;8.540;2023-02-28T11:32:25;101665.63;;;3.35;75.48
2188;BME280;1100;52.014;8.540;2023-02-28T11:37:36;101663.75;;;4.01;76.41
2188;BME280;1100;52.014;8.540;2023-02-28T11:40:05;101674.25;;;4.11;75.81
2188;BME280;1100;52.014;8.540;2023-02-28T11:48:27;101651.69;;;4.73;75.07
2188;BME280;1100;52.014;8.540;2023-02-28T11:51:18;101645.03;;;5.14;75.55
2188;BME280;1100;52.014;8.540;2023-02-28T12:05:08;101647.19;;;6.96;73.21
2188;BME280;1100;52.014;8.540;2023-02-28T12:07:34;101627.31;;;6.87;73.24
2188;BME280;1100;52.014;8.540;2023-02-28T12:10:51;101636.91;;;6.35;73.04
2188;BME280;1100;52.014;8.540;2023-02-28T12:21:10;101620.00;;;5.90;72.07
2188;BME280;1100;52.014;8.540;2023-02-28T12:24:37;101618.72;;;5.83;71.37
2188;BME280;1100;52.014;8.540;2023-02-28T12:26:50;101614.78;;;5.84;72.15
2188;BME280;1100;52.014;8.540;2023-02-28T12:29:33;101618.00;;;5.43;73.30
2188;BME280;1100;52.014;8.540;2023-02-28T12:32:09;101614.34;;;5.16;73.34
2188;BME280;1100;52.014;8.540;2023-02-28T12:34:49;101611.22;;;5.60;71.87
2188;BME280;1100;52.014;8.540;2023-02-28T12:37:31;101620.41;;;5.92;72.76
2188;BME280;1100;52.014;8.540;2023-02-28T12:40:06;101613.38;;;5.71;71.75
2188;BME280;1100;52.014;8.540;2023-02-28T12:42:48;101605.28;;;5.58;70.71
2188;BME280;1100;52.014;8.540;2023-02-28T12:45:23;101602.75;;;5.73;71.67
2188;BME280;1100;52.014;8.540;2023-02-28T12:47:57;101604.22;;;5.90;71.89
2188;BME280;1100;52.014;8.540;2023-02-28T12:50:24;101607.59;;;6.03;71.12
2188;BME280;1100;52.014;8.540;2023-02-28T12:52:57;101600.91;;;6.04;70.86
2188;BME280;1100;52.014;8.540;2023-02-28T12:55:35;101595.63;;;6.19;71.37
2188;BME280;1100;52.014;8.540;2023-02-28T13:04:04;101585.06;;;6.86;68.63
2188;BME280;1100;52.014;8.540;2023-02-28T13:09:17;101577.50;;;6.83;67.82
2188;BME280;1100;52.014;8.540;2023-02-28T13:11:51;101579.78;;;6.73;69.06
2188;BME280;1100;52.014;8.540;2023-02-28T13:14:34;101587.69;;;6.75;69.34
2188;BME280;1100;52.014;8.540;2023-02-28T13:19:37;101570.91;;;6.57;68.40
2188;BME280;1100;52.014;8.540;2023-02-28T13:22:04;101568.00;;;6.46;69.25
2188;BME280;1100;52.014;8.540;2023-02-28T13:29:38;101575.75;;;6.67;67.14
2188;BME280;1100;52.014;8.540;2023-02-28T13:34:36;101570.59;;;6.66;69.15
2188;BME280;1100;52.014;8.540;2023-02-28T13:42:35;101573.28;;;6.93;67.18
2188;BME280;1100;52.014;8.540;2023-02-28T13:47:54;101560.78;;;7.06;67.17
2188;BME280;1100;52.014;8.540;2023-02-28T13:50:50;101558.00;;;7.03;67.83
2188;BME280;1100;52.014;8.540;2023-02-28T14:01:03;101555.66;;;7.05;67.13
2188;BME280;1100;52.014;8.540;2023-02-28T14:03:46;101559.09;;;6.94;66.05
2188;BME280;1100;52.014;8.540;2023-02-28T14:09:17;101552.19;;;6.77;65.65
2188;BME280;1100;52.014;8.540;2023-02-28T14:11:44;101559.09;;;6.94;64.88
2188;BME280;1100;52.014;8.540;2023-02-28T14:17:04;101541.69;;;7.32;65.79
2188;BME280;1100;52.014;8.540;2023-02-28T14:19:31;101544.47;;;7.84;65.22
2188;BME280;1100;52.014;8.540;2023-02-28T14:25:10;101541.94;;;7.57;64.06
2188;BME280;1100;52.014;8.540;2023-02-28T14:28:06;101550.31;;;7.68;63.29
2188;BME280;1100;52.014;8.540;2023-02-28T14:36:36;101536.78;;;8.19;61.83
2188;BME280;1100;52.014;8.540;2023-02-28T14:39:17;101536.44;;;8.25;64.33
2188;BME280;1100;52.014;8.540;2023-02-28T14:41:45;101532.91;;;8.31;61.85
2188;BME280;1100;52.014;8.540;2023-02-28T14:44:21;101530.94;;;8.28;62.13
2188;BME280;1100;52.014;8.540;2023-02-28T14:46:49;101524.25;;;8.40;63.00
2188;BME280;1100;52.014;8.540;2023-02-28T14:49:23;101525.16;;;8.63;62.48
2188;BME280;1100;52.014;8.540;2023-02-28T14:52:22;101527.53;;;8.60;62.48
2188;BME280;1100;52.014;8.540;2023-02-28T14:54:52;101525.19;;;8.70;63.36
2188;BME280;1100;52.014;8.540;2023-02-28T15:00:12;101522.28;;;8.44;62.14
2188;BME280;1100;52.014;8.540;2023-02-28T15:02:39;101528.81;;;8.07;62.01
2188;BME280;1100;52.014;8.540;2023-02-28T15:07:47;101532.00;;;7.56;62.44
2188;BME280;1100;52.014;8.540;2023-02-28T15:10:20;101536.41;;;7.61;63.03
2188;BME280;1100;52.014;8.540;2023-02-28T15:13:00;101531.06;;;7.38;62.21
2188;BME280;1100;52.014;8.540;2023-02-28T15:15:51;101539.16;;;7.16;62.85
2188;BME280;1100;52.014;8.540;2023-02-28T15:18:28;101539.22;;;7.19;62.93
2188;BME280;1100;52.014;8.540;2023-02-28T15:20:59;101534.59;;;7.31;63.87
2188;BME280;1100;52.014;8.540;2023-02-28T15:23:28;101540.88;;;7.28;63.66
2188;BME280;1100;52.014;8.540;2023-02-28T15:25:54;101533.78;;;6.89;63.09
2188;BME280;1100;52.014;8.540;2023-02-28T15:28:22;101535.16;;;6.71;63.64
2188;BME280;1100;52.014;8.540;2023-02-28T15:30:53;101539.63;;;6.49;63.76
2188;BME280;1100;52.014;8.540;2023-02-28T15:33:22;101541.22;;;6.23;63.83